Latest Weather Observations for Banana Bank

IDQ60901

Issued at 11:01 am EST Thursday 25 August 2016 (issued every 10 minutes, with the page automatically refreshed every 10 minutes)

About weather observations | Map of Brisbane area stations | Latest observations for Brisbane area | Other Formats
Station Details ID: 040925 Name: BANANA BANK NORTH BEACON Lat: -27.53 Lon: 153.33 Height: 7.0 m
Data from the previous 72 hours. | See also: Recent months for locations in Queensland
Date/Time
EST
Temp
°C
App
Temp
°C
Dew
Point
°C
Rel
Hum
%
Delta-T
°C
Wind Press
QNH
hPa
Press
MSL
hPa
Rain since
9am
mm
Dir  Spd
km/h
Gust
km/h
Spd
kts
Gust
kts
25/11:00am - - - - - W 28 41 15 22 - - -
25/10:30am - - - - - W 32 44 17 24 - - -
25/10:00am - - - - - W 39 50 21 27 - - -
25/09:30am - - - - - W 30 41 16 22 - - -
25/09:00am - - - - - W 30 43 16 23 - - -
25/08:30am - - - - - W 33 43 18 23 - - -
25/08:00am - - - - - W 32 39 17 21 - - -
25/07:30am - - - - - W 33 43 18 23 - - -
25/07:00am - - - - - W 32 41 17 22 - - -
25/06:30am - - - - - W 30 35 16 19 - - -
25/06:00am - - - - - W 30 35 16 19 - - -
25/05:30am - - - - - W 30 37 16 20 - - -
25/05:00am - - - - - W 28 33 15 18 - - -
25/04:30am - - - - - WNW 30 35 16 19 - - -
25/04:00am - - - - - W 24 32 13 17 - - -
25/03:30am - - - - - W 24 33 13 18 - - -
25/03:00am - - - - - WNW 32 41 17 22 - - -
25/02:30am - - - - - WNW 30 39 16 21 - - -
25/02:00am - - - - - WNW 24 32 13 17 - - -
25/01:30am - - - - - WNW 26 33 14 18 - - -
25/01:00am - - - - - WNW 22 28 12 15 - - -
25/12:30am - - - - - NW 30 37 16 20 - - -
25/12:00am - - - - - NNW 32 39 17 21 - - -
 
Date/Time
EST
Temp
°C
App
Temp
°C
Dew
Point
°C
Rel
Hum
%
Delta-T
°C
Wind Press
QNH
hPa
Press
MSL
hPa
Rain since
9am
mm
Dir  Spd
km/h
Gust
km/h
Spd
kts
Gust
kts
24/11:30pm - - - - - N 32 37 17 20 - - -
24/11:00pm - - - - - N 24 28 13 15 - - -
24/10:30pm - - - - - N 20 24 11 13 - - -
24/10:00pm - - - - - NW 20 24 11 13 - - -
24/09:30pm - - - - - NW 13 17 7 9 - - -
24/09:00pm - - - - - WNW 17 22 9 12 - - -
24/08:30pm - - - - - N 13 15 7 8 - - -
24/08:00pm - - - - - N 13 15 7 8 - - -
24/07:30pm - - - - - NNE 13 15 7 8 - - -
24/07:00pm - - - - - N 13 17 7 9 - - -
24/06:30pm - - - - - NNE 11 13 6 7 - - -
24/06:00pm - - - - - NW 6 7 3 4 - - -
24/05:30pm - - - - - SSW 4 6 2 3 - - -
24/05:00pm - - - - - S 9 13 5 7 - - -
24/04:30pm - - - - - SW 9 13 5 7 - - -
24/04:00pm - - - - - SW 11 15 6 8 - - -
24/03:30pm - - - - - SW 15 17 8 9 - - -
24/03:00pm - - - - - SSW 7 9 4 5 - - -
24/02:30pm - - - - - S 15 20 8 11 - - -
24/02:00pm - - - - - SSW 19 24 10 13 - - -
24/01:30pm - - - - - S 24 32 13 17 - - -
24/01:00pm - - - - - SSE 24 30 13 16 - - -
24/12:30pm - - - - - S 24 35 13 19 - - -
24/12:00pm - - - - - WNW 4 6 2 3 - - -
24/11:30am - - - - - NW 4 6 2 3 - - -
24/11:00am - - - - - NNW 9 11 5 6 - - -
24/10:30am - - - - - NNW 13 15 7 8 - - -
24/10:00am - - - - - N 17 20 9 11 - - -
24/09:30am - - - - - N 19 22 10 12 - - -
24/09:00am - - - - - N 11 15 6 8 - - -
24/08:30am - - - - - NNW 7 7 4 4 - - -
24/08:00am - - - - - NNW 11 13 6 7 - - -
24/07:30am - - - - - NNW 13 17 7 9 - - -
24/07:00am - - - - - WNW 7 9 4 5 - - -
24/06:30am - - - - - N 6 6 3 3 - - -
24/06:00am - - - - - NNE 2 4 1 2 - - -
24/05:30am - - - - - N 4 6 2 3 - - -
24/05:00am - - - - - N 7 7 4 4 - - -
24/04:30am - - - - - N 7 9 4 5 - - -
24/04:00am - - - - - N 13 15 7 8 - - -
24/03:30am - - - - - NNE 17 20 9 11 - - -
24/03:00am - - - - - NNE 20 26 11 14 - - -
24/02:30am - - - - - N 24 30 13 16 - - -
24/02:00am - - - - - N 22 28 12 15 - - -
24/01:30am - - - - - NNE 28 32 15 17 - - -
24/01:00am - - - - - NNE 22 28 12 15 - - -
24/12:30am - - - - - N 26 32 14 17 - - -
24/12:00am - - - - - N 28 33 15 18 - - -
 
Date/Time
EST
Temp
°C
App
Temp
°C
Dew
Point
°C
Rel
Hum
%
Delta-T
°C
Wind Press
QNH
hPa
Press
MSL
hPa
Rain since
9am
mm
Dir  Spd
km/h
Gust
km/h
Spd
kts
Gust
kts
23/11:30pm - - - - - N 19 32 10 17 - - -
23/11:00pm - - - - - NNE 19 22 10 12 - - -
23/10:30pm - - - - - NNE 17 20 9 11 - - -
23/10:00pm - - - - - NNE 17 20 9 11 - - -
23/09:30pm - - - - - NNE 19 22 10 12 - - -
23/09:00pm - - - - - NNE 17 20 9 11 - - -
23/08:30pm - - - - - NNE 13 17 7 9 - - -
23/08:00pm - - - - - NNE 15 17 8 9 - - -
23/07:30pm - - - - - NNE 15 19 8 10 - - -
23/07:00pm - - - - - NNE 13 17 7 9 - - -
23/06:30pm - - - - - NE 7 9 4 5 - - -
23/06:00pm - - - - - NNE 13 15 7 8 - - -
23/05:30pm - - - - - NE 15 19 8 10 - - -
23/05:00pm - - - - - NE 20 22 11 12 - - -
23/04:30pm - - - - - NNE 17 19 9 10 - - -
23/04:00pm - - - - - NE 13 15 7 8 - - -
23/03:30pm - - - - - NNE 15 19 8 10 - - -
23/03:00pm - - - - - NNE 7 15 4 8 - - -
23/02:30pm - - - - - N 13 15 7 8 - - -
23/02:00pm - - - - - N 17 19 9 10 - - -
23/01:30pm - - - - - N 13 15 7 8 - - -
23/01:00pm - - - - - N 15 17 8 9 - - -
23/12:30pm - - - - - N 15 17 8 9 - - -
23/12:00pm - - - - - N 17 19 9 10 - - -
23/11:30am - - - - - N 19 20 10 11 - - -
23/11:00am - - - - - N 17 19 9 10 - - -
23/10:30am - - - - - N 15 17 8 9 - - -
23/10:00am - - - - - N 15 17 8 9 - - -
23/09:30am - - - - - NNW 15 17 8 9 - - -
23/09:00am - - - - - NW 13 13 7 7 - - -
23/08:30am - - - - - N 13 15 7 8 - - -
23/08:00am - - - - - N 13 15 7 8 - - -
23/07:30am - - - - - NNW 13 15 7 8 - - -
23/07:00am - - - - - N 13 17 7 9 - - -
23/06:30am - - - - - NNW 15 17 8 9 - - -
23/06:00am - - - - - NNW 15 19 8 10 - - -
23/05:30am - - - - - NNW 13 15 7 8 - - -
23/05:00am - - - - - NW 15 17 8 9 - - -
23/04:30am - - - - - NW 7 11 4 6 - - -
23/04:00am - - - - - NW 11 13 6 7 - - -
23/03:30am - - - - - NW 11 13 6 7 - - -
23/03:00am - - - - - NW 15 17 8 9 - - -
23/02:30am - - - - - NW 13 17 7 9 - - -
23/02:00am - - - - - NNW 20 24 11 13 - - -
23/01:30am - - - - - N 17 20 9 11 - - -
23/01:00am - - - - - N 19 22 10 12 - - -
23/12:30am - - - - - N 20 24 11 13 - - -
23/12:00am - - - - - N 24 30 13 16 - - -
 
Date/Time
EST
Temp
°C
App
Temp
°C
Dew
Point
°C
Rel
Hum
%
Delta-T
°C
Wind Press
QNH
hPa
Press
MSL
hPa
Rain since
9am
mm
Dir  Spd
km/h
Gust
km/h
Spd
kts
Gust
kts
22/11:30pm - - - - - N 22 28 12 15 - - -
22/11:00pm - - - - - N 22 28 12 15 - - -
22/10:30pm - - - - - N 20 24 11 13 - - -
22/10:00pm - - - - - N 22 26 12 14 - - -
22/09:30pm - - - - - N 22 26 12 14 - - -
22/09:00pm - - - - - N 22 24 12 13 - - -
22/08:30pm - - - - - N 24 30 13 16 - - -
22/08:00pm - - - - - N 24 32 13 17 - - -
22/07:30pm - - - - - NNE 26 32 14 17 - - -
22/07:00pm - - - - - NNE 24 30 13 16 - - -
22/06:30pm - - - - - NNE 22 26 12 14 - - -
22/06:00pm - - - - - NNE 19 24 10 13 - - -
22/05:30pm - - - - - NNE 19 24 10 13 - - -
22/05:00pm - - - - - NNE 24 30 13 16 - - -
22/04:30pm - - - - - NNE 22 28 12 15 - - -
22/04:00pm - - - - - NNE 22 28 12 15 - - -
22/03:30pm - - - - - N 19 24 10 13 - - -
22/03:00pm - - - - - N 15 17 8 9 - - -
22/02:30pm - - - - - N 13 15 7 8 - - -
22/02:00pm - - - - - N 9 13 5 7 - - -
22/01:30pm - - - - - N 9 9 5 5 - - -
22/01:00pm - - - - - NW 9 11 5 6 - - -
22/12:30pm - - - - - NNW 11 15 6 8 - - -
22/12:00pm - - - - - W 4 6 2 3 - - -
22/11:30am - - - - - W 4 6 2 3 - - -

Latest Capital City Observations: Canberra | Sydney | Melbourne | Brisbane | Adelaide | Perth | Hobart | Darwin

Other Formats:

Comma delimited format used in spreadsheet applications
http://www.bom.gov.au/fwo/IDQ60901/IDQ60901.94591.axf

JavaScript Object Notation format (JSON) in row-major order
http://www.bom.gov.au/fwo/IDQ60901/IDQ60901.94591.json